sensor_id;sensor_type;location;lat;lon;timestamp;P1;durP1;ratioP1;P2;durP2;ratioP2
7426;SDS011;3755;59.316;18.092;2023-12-20T00:00:12;7.37;;;1.73;;
7426;SDS011;3755;59.316;18.092;2023-12-20T00:02:40;8.40;;;2.17;;
7426;SDS011;3755;59.316;18.092;2023-12-20T00:05:12;8.17;;;1.93;;
7426;SDS011;3755;59.316;18.092;2023-12-20T00:07:39;12.37;;;2.17;;
7426;SDS011;3755;59.316;18.092;2023-12-20T00:10:08;9.53;;;1.87;;
7426;SDS011;3755;59.316;18.092;2023-12-20T00:12:38;8.30;;;2.17;;
7426;SDS011;3755;59.316;18.092;2023-12-20T00:15:08;6.30;;;1.70;;
7426;SDS011;3755;59.316;18.092;2023-12-20T00:17:39;8.63;;;1.77;;
7426;SDS011;3755;59.316;18.092;2023-12-20T00:20:06;11.13;;;2.53;;
7426;SDS011;3755;59.316;18.092;2023-12-20T00:22:34;10.87;;;2.00;;
7426;SDS011;3755;59.316;18.092;2023-12-20T00:25:02;13.33;;;2.37;;
7426;SDS011;3755;59.316;18.092;2023-12-20T00:27:43;7.47;;;1.87;;
7426;SDS011;3755;59.316;18.092;2023-12-20T00:30:14;11.57;;;2.00;;
7426;SDS011;3755;59.316;18.092;2023-12-20T00:32:44;12.40;;;2.03;;
7426;SDS011;3755;59.316;18.092;2023-12-20T00:35:16;9.70;;;2.53;;
7426;SDS011;3755;59.316;18.092;2023-12-20T00:37:43;9.63;;;2.80;;
7426;SDS011;3755;59.316;18.092;2023-12-20T00:40:11;5.83;;;1.77;;
7426;SDS011;3755;59.316;18.092;2023-12-20T00:42:38;10.27;;;2.13;;
7426;SDS011;3755;59.316;18.092;2023-12-20T00:45:08;8.20;;;2.57;;
7426;SDS011;3755;59.316;18.092;2023-12-20T00:47:39;8.33;;;1.43;;
7426;SDS011;3755;59.316;18.092;2023-12-20T00:50:09;7.77;;;2.03;;
7426;SDS011;3755;59.316;18.092;2023-12-20T00:52:39;11.60;;;1.80;;
7426;SDS011;3755;59.316;18.092;2023-12-20T00:55:06;15.40;;;2.20;;
7426;SDS011;3755;59.316;18.092;2023-12-20T00:57:35;12.43;;;2.20;;
7426;SDS011;3755;59.316;18.092;2023-12-20T01:00:03;14.63;;;2.60;;
7426;SDS011;3755;59.316;18.092;2023-12-20T01:02:52;6.73;;;2.20;;
7426;SDS011;3755;59.316;18.092;2023-12-20T01:05:19;13.20;;;2.07;;
7426;SDS011;3755;59.316;18.092;2023-12-20T01:07:48;5.73;;;1.60;;
7426;SDS011;3755;59.316;18.092;2023-12-20T01:10:15;11.43;;;2.27;;
7426;SDS011;3755;59.316;18.092;2023-12-20T01:12:43;10.57;;;1.80;;
7426;SDS011;3755;59.316;18.092;2023-12-20T01:15:10;12.30;;;2.13;;
7426;SDS011;3755;59.316;18.092;2023-12-20T01:17:37;8.30;;;1.60;;
7426;SDS011;3755;59.316;18.092;2023-12-20T01:20:07;9.27;;;1.40;;
7426;SDS011;3755;59.316;18.092;2023-12-20T01:22:35;11.23;;;2.53;;
7426;SDS011;3755;59.316;18.092;2023-12-20T01:25:03;10.70;;;1.77;;
7426;SDS011;3755;59.316;18.092;2023-12-20T01:27:30;9.97;;;2.20;;
7426;SDS011;3755;59.316;18.092;2023-12-20T01:29:57;10.13;;;2.17;;
7426;SDS011;3755;59.316;18.092;2023-12-20T01:32:26;9.27;;;2.03;;
7426;SDS011;3755;59.316;18.092;2023-12-20T01:34:53;8.70;;;2.47;;
7426;SDS011;3755;59.316;18.092;2023-12-20T01:37:21;12.00;;;3.10;;
7426;SDS011;3755;59.316;18.092;2023-12-20T01:39:50;10.27;;;2.67;;
7426;SDS011;3755;59.316;18.092;2023-12-20T01:42:18;10.50;;;2.37;;
7426;SDS011;3755;59.316;18.092;2023-12-20T01:44:45;5.07;;;1.70;;
7426;SDS011;3755;59.316;18.092;2023-12-20T01:47:13;12.57;;;2.00;;
7426;SDS011;3755;59.316;18.092;2023-12-20T01:49:40;7.97;;;2.03;;
7426;SDS011;3755;59.316;18.092;2023-12-20T01:52:07;13.43;;;2.13;;
7426;SDS011;3755;59.316;18.092;2023-12-20T01:54:37;7.70;;;2.13;;
7426;SDS011;3755;59.316;18.092;2023-12-20T01:57:05;10.20;;;1.90;;
7426;SDS011;3755;59.316;18.092;2023-12-20T01:59:33;14.43;;;1.90;;
7426;SDS011;3755;59.316;18.092;2023-12-20T02:02:01;8.47;;;2.00;;
7426;SDS011;3755;59.316;18.092;2023-12-20T02:04:30;18.27;;;2.70;;
7426;SDS011;3755;59.316;18.092;2023-12-20T02:06:57;10.47;;;2.00;;
7426;SDS011;3755;59.316;18.092;2023-12-20T02:09:25;16.67;;;2.97;;
7426;SDS011;3755;59.316;18.092;2023-12-20T02:11:55;12.37;;;2.30;;
7426;SDS011;3755;59.316;18.092;2023-12-20T02:14:22;7.50;;;1.87;;
7426;SDS011;3755;59.316;18.092;2023-12-20T02:16:50;13.50;;;2.17;;
7426;SDS011;3755;59.316;18.092;2023-12-20T02:19:19;5.50;;;2.03;;
7426;SDS011;3755;59.316;18.092;2023-12-20T02:21:48;11.47;;;2.27;;
7426;SDS011;3755;59.316;18.092;2023-12-20T02:24:15;11.00;;;2.03;;
7426;SDS011;3755;59.316;18.092;2023-12-20T02:26:43;8.97;;;1.90;;
7426;SDS011;3755;59.316;18.092;2023-12-20T02:29:10;15.40;;;2.07;;
7426;SDS011;3755;59.316;18.092;2023-12-20T02:31:36;6.57;;;1.60;;
7426;SDS011;3755;59.316;18.092;2023-12-20T02:34:03;16.70;;;2.67;;
7426;SDS011;3755;59.316;18.092;2023-12-20T02:36:31;10.80;;;2.47;;
7426;SDS011;3755;59.316;18.092;2023-12-20T02:38:59;9.50;;;2.10;;
7426;SDS011;3755;59.316;18.092;2023-12-20T02:41:28;9.73;;;2.33;;
7426;SDS011;3755;59.316;18.092;2023-12-20T02:43:55;8.93;;;2.70;;
7426;SDS011;3755;59.316;18.092;2023-12-20T02:46:22;10.07;;;2.10;;
7426;SDS011;3755;59.316;18.092;2023-12-20T02:48:49;7.43;;;1.63;;
7426;SDS011;3755;59.316;18.092;2023-12-20T02:51:17;11.30;;;2.70;;
7426;SDS011;3755;59.316;18.092;2023-12-20T02:53:44;12.10;;;2.60;;
7426;SDS011;3755;59.316;18.092;2023-12-20T02:56:13;6.40;;;2.03;;
7426;SDS011;3755;59.316;18.092;2023-12-20T02:58:40;9.90;;;1.77;;
7426;SDS011;3755;59.316;18.092;2023-12-20T03:01:07;8.57;;;2.03;;
7426;SDS011;3755;59.316;18.092;2023-12-20T03:03:35;13.73;;;2.37;;
7426;SDS011;3755;59.316;18.092;2023-12-20T03:06:02;10.53;;;2.03;;
7426;SDS011;3755;59.316;18.092;2023-12-20T03:08:30;8.00;;;2.27;;
7426;SDS011;3755;59.316;18.092;2023-12-20T03:10:57;6.93;;;2.23;;
7426;SDS011;3755;59.316;18.092;2023-12-20T03:13:26;11.43;;;2.00;;
7426;SDS011;3755;59.316;18.092;2023-12-20T03:15:54;7.23;;;1.90;;
7426;SDS011;3755;59.316;18.092;2023-12-20T03:18:21;10.13;;;1.90;;
7426;SDS011;3755;59.316;18.092;2023-12-20T03:20:48;7.27;;;1.73;;
7426;SDS011;3755;59.316;18.092;2023-12-20T03:23:16;9.93;;;1.77;;
7426;SDS011;3755;59.316;18.092;2023-12-20T03:25:43;9.27;;;2.13;;
7426;SDS011;3755;59.316;18.092;2023-12-20T03:28:10;10.50;;;2.03;;
7426;SDS011;3755;59.316;18.092;2023-12-20T03:30:39;6.43;;;1.90;;
7426;SDS011;3755;59.316;18.092;2023-12-20T03:33:06;8.10;;;1.80;;
7426;SDS011;3755;59.316;18.092;2023-12-20T03:35:33;8.27;;;1.50;;
7426;SDS011;3755;59.316;18.092;2023-12-20T03:38:01;12.47;;;3.10;;
7426;SDS011;3755;59.316;18.092;2023-12-20T03:40:28;5.80;;;1.50;;
7426;SDS011;3755;59.316;18.092;2023-12-20T03:42:55;8.57;;;1.83;;
7426;SDS011;3755;59.316;18.092;2023-12-20T03:45:22;8.80;;;1.77;;
7426;SDS011;3755;59.316;18.092;2023-12-20T03:47:51;14.33;;;2.20;;
7426;SDS011;3755;59.316;18.092;2023-12-20T03:50:20;7.67;;;2.40;;
7426;SDS011;3755;59.316;18.092;2023-12-20T03:52:48;9.57;;;1.53;;
7426;SDS011;3755;59.316;18.092;2023-12-20T03:55:15;8.97;;;1.73;;
7426;SDS011;3755;59.316;18.092;2023-12-20T03:57:45;6.90;;;1.87;;
7426;SDS011;3755;59.316;18.092;2023-12-20T04:00:12;5.83;;;2.23;;
7426;SDS011;3755;59.316;18.092;2023-12-20T04:02:40;10.00;;;2.50;;
7426;SDS011;3755;59.316;18.092;2023-12-20T04:05:10;14.23;;;3.13;;
7426;SDS011;3755;59.316;18.092;2023-12-20T04:07:45;10.00;;;2.57;;
7426;SDS011;3755;59.316;18.092;2023-12-20T04:10:12;6.77;;;2.13;;
7426;SDS011;3755;59.316;18.092;2023-12-20T04:12:39;9.10;;;2.43;;
7426;SDS011;3755;59.316;18.092;2023-12-20T04:15:06;10.37;;;2.80;;
7426;SDS011;3755;59.316;18.092;2023-12-20T04:17:37;12.40;;;3.07;;
7426;SDS011;3755;59.316;18.092;2023-12-20T04:20:04;9.60;;;2.37;;
7426;SDS011;3755;59.316;18.092;2023-12-20T04:22:34;6.60;;;1.90;;
7426;SDS011;3755;59.316;18.092;2023-12-20T04:25:01;8.93;;;2.67;;
7426;SDS011;3755;59.316;18.092;2023-12-20T04:27:28;11.77;;;2.10;;
7426;SDS011;3755;59.316;18.092;2023-12-20T04:29:55;14.67;;;2.70;;
7426;SDS011;3755;59.316;18.092;2023-12-20T04:32:23;9.83;;;2.20;;
7426;SDS011;3755;59.316;18.092;2023-12-20T04:34:50;9.73;;;2.13;;
7426;SDS011;3755;59.316;18.092;2023-12-20T04:37:17;6.23;;;2.00;;
7426;SDS011;3755;59.316;18.092;2023-12-20T04:39:46;10.97;;;2.70;;
7426;SDS011;3755;59.316;18.092;2023-12-20T04:42:13;5.03;;;2.00;;
7426;SDS011;3755;59.316;18.092;2023-12-20T04:44:40;9.43;;;2.60;;
7426;SDS011;3755;59.316;18.092;2023-12-20T04:47:08;9.00;;;2.27;;
7426;SDS011;3755;59.316;18.092;2023-12-20T04:49:36;9.07;;;2.83;;
7426;SDS011;3755;59.316;18.092;2023-12-20T04:52:03;10.87;;;2.33;;
7426;SDS011;3755;59.316;18.092;2023-12-20T04:54:31;9.97;;;2.90;;
7426;SDS011;3755;59.316;18.092;2023-12-20T04:56:59;7.57;;;2.87;;
7426;SDS011;3755;59.316;18.092;2023-12-20T04:59:27;8.87;;;2.23;;
7426;SDS011;3755;59.316;18.092;2023-12-20T05:01:54;6.97;;;2.53;;
7426;SDS011;3755;59.316;18.092;2023-12-20T05:04:22;5.53;;;2.17;;
7426;SDS011;3755;59.316;18.092;2023-12-20T05:06:49;13.33;;;3.67;;
7426;SDS011;3755;59.316;18.092;2023-12-20T05:09:17;8.90;;;3.20;;
7426;SDS011;3755;59.316;18.092;2023-12-20T05:11:44;12.30;;;4.00;;
7426;SDS011;3755;59.316;18.092;2023-12-20T05:14:15;13.73;;;4.30;;
7426;SDS011;3755;59.316;18.092;2023-12-20T05:16:43;12.33;;;3.97;;
7426;SDS011;3755;59.316;18.092;2023-12-20T05:19:10;16.97;;;5.03;;
7426;SDS011;3755;59.316;18.092;2023-12-20T05:21:37;10.60;;;4.63;;
7426;SDS011;3755;59.316;18.092;2023-12-20T05:24:05;11.70;;;4.80;;
7426;SDS011;3755;59.316;18.092;2023-12-20T05:26:32;14.63;;;5.07;;
7426;SDS011;3755;59.316;18.092;2023-12-20T05:28:59;16.00;;;6.20;;
7426;SDS011;3755;59.316;18.092;2023-12-20T05:31:27;12.67;;;5.30;;
7426;SDS011;3755;59.316;18.092;2023-12-20T05:33:54;12.63;;;5.50;;
7426;SDS011;3755;59.316;18.092;2023-12-20T05:36:22;15.47;;;5.10;;
7426;SDS011;3755;59.316;18.092;2023-12-20T05:38:52;11.90;;;5.17;;
7426;SDS011;3755;59.316;18.092;2023-12-20T05:41:19;17.17;;;5.77;;
7426;SDS011;3755;59.316;18.092;2023-12-20T05:43:49;18.63;;;5.97;;
7426;SDS011;3755;59.316;18.092;2023-12-20T05:46:16;11.87;;;5.53;;
7426;SDS011;3755;59.316;18.092;2023-12-20T05:48:45;15.03;;;4.93;;
7426;SDS011;3755;59.316;18.092;2023-12-20T05:51:12;13.10;;;4.23;;
7426;SDS011;3755;59.316;18.092;2023-12-20T05:53:40;12.13;;;4.10;;
7426;SDS011;3755;59.316;18.092;2023-12-20T05:56:21;9.37;;;4.37;;
7426;SDS011;3755;59.316;18.092;2023-12-20T05:58:55;10.73;;;4.50;;
7426;SDS011;3755;59.316;18.092;2023-12-20T06:01:24;15.07;;;4.60;;
7426;SDS011;3755;59.316;18.092;2023-12-20T06:30:07;14.97;;;5.37;;
7426;SDS011;3755;59.316;18.092;2023-12-20T06:32:36;21.13;;;6.30;;
7426;SDS011;3755;59.316;18.092;2023-12-20T06:35:18;21.40;;;6.13;;
7426;SDS011;3755;59.316;18.092;2023-12-20T06:38:07;21.83;;;5.87;;
7426;SDS011;3755;59.316;18.092;2023-12-20T06:40:48;20.57;;;5.57;;
7426;SDS011;3755;59.316;18.092;2023-12-20T06:43:17;25.77;;;6.77;;
7426;SDS011;3755;59.316;18.092;2023-12-20T06:49:11;15.20;;;4.47;;
7426;SDS011;3755;59.316;18.092;2023-12-20T06:52:10;16.40;;;4.60;;
7426;SDS011;3755;59.316;18.092;2023-12-20T06:54:51;9.83;;;3.90;;
7426;SDS011;3755;59.316;18.092;2023-12-20T06:57:20;16.50;;;4.33;;
7426;SDS011;3755;59.316;18.092;2023-12-20T07:00:01;14.40;;;4.00;;
7426;SDS011;3755;59.316;18.092;2023-12-20T07:02:44;9.40;;;3.20;;
7426;SDS011;3755;59.316;18.092;2023-12-20T07:08:10;7.73;;;3.93;;
7426;SDS011;3755;59.316;18.092;2023-12-20T07:10:39;11.87;;;4.30;;
7426;SDS011;3755;59.316;18.092;2023-12-20T07:13:19;11.03;;;4.03;;
7426;SDS011;3755;59.316;18.092;2023-12-20T07:15:47;14.13;;;5.00;;
7426;SDS011;3755;59.316;18.092;2023-12-20T07:21:43;14.07;;;5.63;;
7426;SDS011;3755;59.316;18.092;2023-12-20T07:24:20;18.33;;;5.03;;
7426;SDS011;3755;59.316;18.092;2023-12-20T07:26:54;13.20;;;5.07;;
7426;SDS011;3755;59.316;18.092;2023-12-20T07:29:36;22.77;;;6.50;;
7426;SDS011;3755;59.316;18.092;2023-12-20T07:32:50;16.70;;;6.20;;
7426;SDS011;3755;59.316;18.092;2023-12-20T07:35:55;17.80;;;5.90;;
7426;SDS011;3755;59.316;18.092;2023-12-20T07:48:55;13.77;;;4.33;;
7426;SDS011;3755;59.316;18.092;2023-12-20T07:52:11;8.93;;;3.50;;
7426;SDS011;3755;59.316;18.092;2023-12-20T07:54:53;10.67;;;3.77;;
7426;SDS011;3755;59.316;18.092;2023-12-20T07:58:08;11.17;;;3.70;;
7426;SDS011;3755;59.316;18.092;2023-12-20T08:00:55;13.40;;;5.30;;
7426;SDS011;3755;59.316;18.092;2023-12-20T09:51:00;12.80;;;5.20;;
7426;SDS011;3755;59.316;18.092;2023-12-20T09:53:57;17.83;;;7.17;;
7426;SDS011;3755;59.316;18.092;2023-12-20T09:56:57;22.70;;;10.77;;
7426;SDS011;3755;59.316;18.092;2023-12-20T09:59:46;33.63;;;14.03;;
7426;SDS011;3755;59.316;18.092;2023-12-20T10:03:08;13.00;;;6.70;;
7426;SDS011;3755;59.316;18.092;2023-12-20T10:15:46;16.23;;;5.23;;
7426;SDS011;3755;59.316;18.092;2023-12-20T10:18:38;15.13;;;4.80;;
7426;SDS011;3755;59.316;18.092;2023-12-20T10:21:44;9.87;;;3.70;;
7426;SDS011;3755;59.316;18.092;2023-12-20T10:24:32;19.43;;;4.53;;
7426;SDS011;3755;59.316;18.092;2023-12-20T10:27:34;12.97;;;4.57;;
7426;SDS011;3755;59.316;18.092;2023-12-20T10:30:18;9.23;;;4.30;;
7426;SDS011;3755;59.316;18.092;2023-12-20T11:46:36;10.70;;;2.77;;
7426;SDS011;3755;59.316;18.092;2023-12-20T11:49:40;11.10;;;2.60;;
7426;SDS011;3755;59.316;18.092;2023-12-20T11:52:23;7.00;;;2.10;;
7426;SDS011;3755;59.316;18.092;2023-12-20T11:55:06;7.43;;;2.90;;
7426;SDS011;3755;59.316;18.092;2023-12-20T11:58:08;8.03;;;2.03;;
7426;SDS011;3755;59.316;18.092;2023-12-20T12:00:50;7.73;;;2.07;;
7426;SDS011;3755;59.316;18.092;2023-12-20T12:56:10;2.27;;;1.63;;
7426;SDS011;3755;59.316;18.092;2023-12-20T12:58:58;3.60;;;1.60;;
7426;SDS011;3755;59.316;18.092;2023-12-20T13:01:39;3.33;;;1.93;;
7426;SDS011;3755;59.316;18.092;2023-12-20T13:04:25;3.53;;;1.47;;
7426;SDS011;3755;59.316;18.092;2023-12-20T13:07:06;2.30;;;1.43;;
7426;SDS011;3755;59.316;18.092;2023-12-20T13:09:47;2.03;;;1.53;;
7426;SDS011;3755;59.316;18.092;2023-12-20T13:12:31;2.53;;;1.53;;
7426;SDS011;3755;59.316;18.092;2023-12-20T13:15:15;3.07;;;1.30;;
7426;SDS011;3755;59.316;18.092;2023-12-20T13:17:57;5.50;;;1.50;;
7426;SDS011;3755;59.316;18.092;2023-12-20T13:20:49;3.83;;;1.60;;
7426;SDS011;3755;59.316;18.092;2023-12-20T13:23:33;3.97;;;1.50;;
7426;SDS011;3755;59.316;18.092;2023-12-20T13:26:04;4.43;;;1.73;;
7426;SDS011;3755;59.316;18.092;2023-12-20T13:32:07;4.00;;;2.00;;
7426;SDS011;3755;59.316;18.092;2023-12-20T13:35:06;3.70;;;1.40;;
7426;SDS011;3755;59.316;18.092;2023-12-20T13:37:48;4.27;;;1.30;;
7426;SDS011;3755;59.316;18.092;2023-12-20T13:40:29;5.20;;;1.87;;
7426;SDS011;3755;59.316;18.092;2023-12-20T13:43:11;5.27;;;1.60;;
7426;SDS011;3755;59.316;18.092;2023-12-20T13:45:55;4.43;;;1.33;;
7426;SDS011;3755;59.316;18.092;2023-12-20T14:01:56;5.37;;;1.40;;
7426;SDS011;3755;59.316;18.092;2023-12-20T14:04:38;4.47;;;1.40;;
7426;SDS011;3755;59.316;18.092;2023-12-20T14:07:10;4.57;;;1.63;;
7426;SDS011;3755;59.316;18.092;2023-12-20T14:09:52;7.10;;;2.30;;
7426;SDS011;3755;59.316;18.092;2023-12-20T14:12:34;3.27;;;1.50;;
7426;SDS011;3755;59.316;18.092;2023-12-20T14:15:32;4.50;;;1.40;;
7426;SDS011;3755;59.316;18.092;2023-12-20T14:28:08;2.83;;;1.33;;
7426;SDS011;3755;59.316;18.092;2023-12-20T14:30:45;4.93;;;1.83;;
7426;SDS011;3755;59.316;18.092;2023-12-20T14:33:31;7.73;;;2.23;;
7426;SDS011;3755;59.316;18.092;2023-12-20T14:36:22;5.20;;;1.70;;
7426;SDS011;3755;59.316;18.092;2023-12-20T14:39:18;4.67;;;1.67;;
7426;SDS011;3755;59.316;18.092;2023-12-20T14:41:48;3.77;;;1.60;;
7426;SDS011;3755;59.316;18.092;2023-12-20T15:16:38;4.43;;;2.13;;
7426;SDS011;3755;59.316;18.092;2023-12-20T15:19:09;6.47;;;2.00;;
7426;SDS011;3755;59.316;18.092;2023-12-20T15:21:50;7.40;;;2.40;;
7426;SDS011;3755;59.316;18.092;2023-12-20T15:24:41;6.60;;;2.00;;
7426;SDS011;3755;59.316;18.092;2023-12-20T15:27:32;5.67;;;2.13;;
7426;SDS011;3755;59.316;18.092;2023-12-20T15:30:56;6.73;;;2.03;;
7426;SDS011;3755;59.316;18.092;2023-12-20T17:03:55;5.53;;;2.70;;
7426;SDS011;3755;59.316;18.092;2023-12-20T17:06:36;7.27;;;2.90;;
7426;SDS011;3755;59.316;18.092;2023-12-20T17:09:38;7.67;;;2.87;;
7426;SDS011;3755;59.316;18.092;2023-12-20T17:12:20;8.97;;;2.73;;
7426;SDS011;3755;59.316;18.092;2023-12-20T17:15:07;7.13;;;2.73;;
7426;SDS011;3755;59.316;18.092;2023-12-20T17:17:49;8.13;;;3.50;;
7426;SDS011;3755;59.316;18.092;2023-12-20T17:20:57;6.93;;;2.80;;
7426;SDS011;3755;59.316;18.092;2023-12-20T17:23:46;6.10;;;2.33;;
7426;SDS011;3755;59.316;18.092;2023-12-20T17:26:30;6.50;;;2.83;;
7426;SDS011;3755;59.316;18.092;2023-12-20T17:29:11;7.97;;;3.03;;
7426;SDS011;3755;59.316;18.092;2023-12-20T17:32:13;6.13;;;3.00;;
7426;SDS011;3755;59.316;18.092;2023-12-20T17:34:58;10.90;;;3.40;;
7426;SDS011;3755;59.316;18.092;2023-12-20T18:25:19;7.87;;;3.67;;
7426;SDS011;3755;59.316;18.092;2023-12-20T18:28:12;7.00;;;3.00;;
7426;SDS011;3755;59.316;18.092;2023-12-20T18:30:53;8.93;;;4.50;;
7426;SDS011;3755;59.316;18.092;2023-12-20T18:33:37;11.53;;;4.30;;
7426;SDS011;3755;59.316;18.092;2023-12-20T18:36:28;9.70;;;4.40;;
7426;SDS011;3755;59.316;18.092;2023-12-20T18:39:09;8.57;;;3.20;;
7426;SDS011;3755;59.316;18.092;2023-12-20T18:51:16;11.23;;;4.33;;
7426;SDS011;3755;59.316;18.092;2023-12-20T18:53:57;11.63;;;4.17;;
7426;SDS011;3755;59.316;18.092;2023-12-20T18:56:29;11.53;;;4.93;;
7426;SDS011;3755;59.316;18.092;2023-12-20T18:59:20;11.33;;;4.60;;
7426;SDS011;3755;59.316;18.092;2023-12-20T19:02:07;15.57;;;4.47;;
7426;SDS011;3755;59.316;18.092;2023-12-20T19:17:38;8.30;;;3.97;;
7426;SDS011;3755;59.316;18.092;2023-12-20T19:20:20;6.77;;;3.70;;
7426;SDS011;3755;59.316;18.092;2023-12-20T19:23:01;10.80;;;3.60;;
7426;SDS011;3755;59.316;18.092;2023-12-20T19:25:44;9.97;;;3.13;;
7426;SDS011;3755;59.316;18.092;2023-12-20T19:28:11;6.17;;;3.00;;
7426;SDS011;3755;59.316;18.092;2023-12-20T19:30:53;7.17;;;3.10;;
7426;SDS011;3755;59.316;18.092;2023-12-20T19:33:37;5.37;;;2.97;;
7426;SDS011;3755;59.316;18.092;2023-12-20T19:36:20;7.20;;;3.17;;
7426;SDS011;3755;59.316;18.092;2023-12-20T19:39:03;5.93;;;2.97;;
7426;SDS011;3755;59.316;18.092;2023-12-20T19:41:52;5.33;;;2.80;;
7426;SDS011;3755;59.316;18.092;2023-12-20T19:44:34;9.90;;;3.50;;
7426;SDS011;3755;59.316;18.092;2023-12-20T19:47:19;7.90;;;3.47;;
7426;SDS011;3755;59.316;18.092;2023-12-20T19:53:49;10.87;;;3.77;;
7426;SDS011;3755;59.316;18.092;2023-12-20T19:56:33;8.27;;;3.67;;
7426;SDS011;3755;59.316;18.092;2023-12-20T19:59:03;7.07;;;2.43;;
7426;SDS011;3755;59.316;18.092;2023-12-20T20:01:32;9.93;;;4.13;;
7426;SDS011;3755;59.316;18.092;2023-12-20T20:04:05;5.63;;;3.30;;
7426;SDS011;3755;59.316;18.092;2023-12-20T20:06:35;9.47;;;4.10;;
7426;SDS011;3755;59.316;18.092;2023-12-20T20:09:13;7.47;;;3.53;;
7426;SDS011;3755;59.316;18.092;2023-12-20T20:11:42;5.67;;;3.67;;
7426;SDS011;3755;59.316;18.092;2023-12-20T20:14:11;8.10;;;3.60;;
7426;SDS011;3755;59.316;18.092;2023-12-20T20:16:38;11.40;;;4.10;;
7426;SDS011;3755;59.316;18.092;2023-12-20T20:19:07;9.40;;;4.20;;
7426;SDS011;3755;59.316;18.092;2023-12-20T20:21:35;10.93;;;4.70;;
7426;SDS011;3755;59.316;18.092;2023-12-20T20:24:07;11.23;;;4.70;;
7426;SDS011;3755;59.316;18.092;2023-12-20T20:26:37;9.27;;;4.63;;
7426;SDS011;3755;59.316;18.092;2023-12-20T20:29:04;10.10;;;3.93;;
7426;SDS011;3755;59.316;18.092;2023-12-20T20:31:35;8.27;;;3.50;;
7426;SDS011;3755;59.316;18.092;2023-12-20T20:34:05;9.30;;;3.87;;
7426;SDS011;3755;59.316;18.092;2023-12-20T20:36:33;9.93;;;5.03;;
7426;SDS011;3755;59.316;18.092;2023-12-20T20:39:02;18.47;;;7.07;;
7426;SDS011;3755;59.316;18.092;2023-12-20T20:41:30;15.17;;;4.87;;
7426;SDS011;3755;59.316;18.092;2023-12-20T20:44:01;13.50;;;5.63;;
7426;SDS011;3755;59.316;18.092;2023-12-20T20:46:30;8.57;;;4.30;;
7426;SDS011;3755;59.316;18.092;2023-12-20T20:49:00;17.50;;;5.60;;
7426;SDS011;3755;59.316;18.092;2023-12-20T20:51:31;14.27;;;5.67;;
7426;SDS011;3755;59.316;18.092;2023-12-20T20:54:04;12.47;;;4.83;;
7426;SDS011;3755;59.316;18.092;2023-12-20T20:56:34;14.30;;;5.53;;
7426;SDS011;3755;59.316;18.092;2023-12-20T20:59:18;12.23;;;5.07;;
7426;SDS011;3755;59.316;18.092;2023-12-20T21:02:00;10.93;;;5.30;;
7426;SDS011;3755;59.316;18.092;2023-12-20T21:04:30;12.93;;;5.40;;
7426;SDS011;3755;59.316;18.092;2023-12-20T21:06:57;15.37;;;6.60;;
7426;SDS011;3755;59.316;18.092;2023-12-20T21:09:26;19.50;;;7.33;;
7426;SDS011;3755;59.316;18.092;2023-12-20T21:12:11;10.23;;;5.37;;
7426;SDS011;3755;59.316;18.092;2023-12-20T21:17:57;8.63;;;3.50;;
7426;SDS011;3755;59.316;18.092;2023-12-20T21:20:30;8.50;;;3.73;;
7426;SDS011;3755;59.316;18.092;2023-12-20T21:23:04;10.80;;;4.00;;
7426;SDS011;3755;59.316;18.092;2023-12-20T21:25:35;11.23;;;4.57;;
7426;SDS011;3755;59.316;18.092;2023-12-20T21:28:04;12.57;;;4.40;;
7426;SDS011;3755;59.316;18.092;2023-12-20T21:30:45;14.70;;;4.60;;
7426;SDS011;3755;59.316;18.092;2023-12-20T21:36:29;16.33;;;5.80;;
7426;SDS011;3755;59.316;18.092;2023-12-20T21:39:14;13.40;;;4.47;;
7426;SDS011;3755;59.316;18.092;2023-12-20T21:41:59;12.80;;;4.47;;
7426;SDS011;3755;59.316;18.092;2023-12-20T21:44:42;10.20;;;4.40;;
7426;SDS011;3755;59.316;18.092;2023-12-20T21:47:23;9.27;;;4.43;;
7426;SDS011;3755;59.316;18.092;2023-12-20T21:53:13;9.87;;;4.43;;
7426;SDS011;3755;59.316;18.092;2023-12-20T21:55:54;9.20;;;4.03;;
7426;SDS011;3755;59.316;18.092;2023-12-20T21:58:36;10.63;;;4.60;;
7426;SDS011;3755;59.316;18.092;2023-12-20T22:01:04;19.23;;;7.00;;
7426;SDS011;3755;59.316;18.092;2023-12-20T22:03:47;17.30;;;5.33;;
7426;SDS011;3755;59.316;18.092;2023-12-20T22:15:54;14.77;;;4.07;;
7426;SDS011;3755;59.316;18.092;2023-12-20T22:18:40;12.07;;;4.13;;
7426;SDS011;3755;59.316;18.092;2023-12-20T22:21:08;9.63;;;3.13;;
7426;SDS011;3755;59.316;18.092;2023-12-20T22:23:43;9.77;;;3.17;;
7426;SDS011;3755;59.316;18.092;2023-12-20T22:26:11;5.23;;;2.73;;
7426;SDS011;3755;59.316;18.092;2023-12-20T22:28:41;9.43;;;4.30;;
7426;SDS011;3755;59.316;18.092;2023-12-20T22:31:11;11.17;;;3.30;;
7426;SDS011;3755;59.316;18.092;2023-12-20T22:33:52;13.20;;;3.93;;
7426;SDS011;3755;59.316;18.092;2023-12-20T22:47:16;11.20;;;3.73;;
7426;SDS011;3755;59.316;18.092;2023-12-20T22:50:04;12.60;;;4.87;;
7426;SDS011;3755;59.316;18.092;2023-12-20T22:52:50;11.73;;;5.30;;
7426;SDS011;3755;59.316;18.092;2023-12-20T22:55:33;10.60;;;3.73;;
7426;SDS011;3755;59.316;18.092;2023-12-20T22:58:14;10.93;;;4.40;;
7426;SDS011;3755;59.316;18.092;2023-12-20T23:00:41;7.17;;;3.53;;
7426;SDS011;3755;59.316;18.092;2023-12-20T23:03:10;8.73;;;3.33;;
7426;SDS011;3755;59.316;18.092;2023-12-20T23:05:37;11.53;;;3.60;;
7426;SDS011;3755;59.316;18.092;2023-12-20T23:08:04;8.83;;;3.40;;
7426;SDS011;3755;59.316;18.092;2023-12-20T23:10:32;6.17;;;3.40;;
7426;SDS011;3755;59.316;18.092;2023-12-20T23:12:59;10.73;;;4.97;;
7426;SDS011;3755;59.316;18.092;2023-12-20T23:15:26;10.87;;;4.67;;
7426;SDS011;3755;59.316;18.092;2023-12-20T23:17:53;7.87;;;3.80;;
7426;SDS011;3755;59.316;18.092;2023-12-20T23:20:24;8.20;;;3.83;;
7426;SDS011;3755;59.316;18.092;2023-12-20T23:22:51;9.67;;;3.03;;
7426;SDS011;3755;59.316;18.092;2023-12-20T23:25:18;9.07;;;4.30;;
7426;SDS011;3755;59.316;18.092;2023-12-20T23:27:46;5.37;;;2.70;;
7426;SDS011;3755;59.316;18.092;2023-12-20T23:30:16;13.43;;;4.43;;
7426;SDS011;3755;59.316;18.092;2023-12-20T23:32:44;7.30;;;3.40;;
7426;SDS011;3755;59.316;18.092;2023-12-20T23:35:11;8.27;;;3.70;;
7426;SDS011;3755;59.316;18.092;2023-12-20T23:37:40;7.90;;;3.37;;
7426;SDS011;3755;59.316;18.092;2023-12-20T23:40:08;7.87;;;3.83;;
7426;SDS011;3755;59.316;18.092;2023-12-20T23:42:35;7.83;;;3.90;;
7426;SDS011;3755;59.316;18.092;2023-12-20T23:45:03;12.47;;;4.43;;
7426;SDS011;3755;59.316;18.092;2023-12-20T23:47:30;8.63;;;3.83;;
7426;SDS011;3755;59.316;18.092;2023-12-20T23:49:58;9.17;;;4.17;;
7426;SDS011;3755;59.316;18.092;2023-12-20T23:52:25;9.07;;;3.80;;
7426;SDS011;3755;59.316;18.092;2023-12-20T23:54:53;7.93;;;4.50;;
7426;SDS011;3755;59.316;18.092;2023-12-20T23:57:21;5.80;;;3.40;;
7426;SDS011;3755;59.316;18.092;2023-12-20T23:59:48;7.47;;;4.10;;
